Holly Ann — WDE9094 — position and weather

sailwx.info

Track history (hours):
 
Tides and Currents Weather Stations Pressure Air Temp Water Temp Dewpoint Dewpoint Depression Visibility Wind Speed Wind Dir Waves Ship Positions

Holly Ann

Owner: Manke Tug and Barge Co., Inc., Shelton, WA. More information available from US FCC via Universal Licensing System and Coast Guard Vessel Documentation Center.

Last reported at 2015-Aug-27 20:04 UTC. Time now 2015-Sep-01 14:13 UTC.
Position N 47°11' W 122°39'.

; draft 4.5 m.

Type: Towing. MMSI: 367413350.

Date/timePositionNaut miles runAvg speedWind from/ knotsBaromVisibWave heightAir tempDewpointWater temp
2015-Aug-27 20:04N 47°11' W 122°39'5 9.8
2015-Aug-27 19:33N 47°15' W 122°34'9 9.3
2015-Aug-27 18:33N 47°24' W 122°32'7 7.4
2015-Aug-27 17:34N 47°31' W 122°29'6 5.9
2015-Aug-27 16:33N 47°35' W 122°22'1 1.4
2015-Aug-27 15:32N 47°33' W 122°21'0 0.0
2015-Aug-27 14:27N 47°33' W 122°21'0 0.0
2015-Aug-27 13:27N 47°33' W 122°21'0 0.0
2015-Aug-27 12:33N 47°33' W 122°21'0 0.0
2015-Aug-27 11:31N 47°33' W 122°21'0 0.0
2015-Aug-27 10:33N 47°33' W 122°21'0 0.0
2015-Aug-27 09:33N 47°33' W 122°21'0 0.0
2015-Aug-27 08:33N 47°33' W 122°21'0 0.0
2015-Aug-27 07:27N 47°33' W 122°21'0 0.0
2015-Aug-27 06:33N 47°33' W 122°21'2 2.3
2015-Aug-27 05:34N 47°35' W 122°22'6 6.2
2015-Aug-27 04:33N 47°31' W 122°29'8 7.8
2015-Aug-27 03:34N 47°24' W 122°32'8 8.2
2015-Aug-27 02:33N 47°16' W 122°34'5 0.2
2015-Aug-26 01:09N 47°12' W 122°39'5 7.5
2015-Aug-26 00:33N 47°15' W 122°34'7 7.1
2015-Aug-25 23:33N 47°22' W 122°32'8 7.9
2015-Aug-25 22:33N 47°30' W 122°30'8 7.8
2015-Aug-25 21:33N 47°36' W 122°22'2 1.7
2015-Aug-25 20:31N 47°34' W 122°21'0 0.0
2015-Aug-25 19:33N 47°34' W 122°21'0 0.0
2015-Aug-25 18:33N 47°34' W 122°21'0 0.0
2015-Aug-25 17:33N 47°34' W 122°21'0 0.0
2015-Aug-25 16:33N 47°34' W 122°21'0 0.0
2015-Aug-25 15:33N 47°34' W 122°21'0 0.0
2015-Aug-25 14:33N 47°34' W 122°21'0 0.0
2015-Aug-25 13:33N 47°34' W 122°21'0 0.0
2015-Aug-25 12:33N 47°34' W 122°21'0 0.0
2015-Aug-25 11:33N 47°34' W 122°21'0 0.0
2015-Aug-25 10:33N 47°34' W 122°21'0 0.0
2015-Aug-25 09:33N 47°34' W 122°21'0 0.0
2015-Aug-25 08:33N 47°34' W 122°21'0 0.0
2015-Aug-25 07:33N 47°34' W 122°21'0 0.0
2015-Aug-25 06:33N 47°34' W 122°21'0 0.0
2015-Aug-25 05:33N 47°34' W 122°21'1 0.8
2015-Aug-25 04:33N 47°35' W 122°22'5 5.0
2015-Aug-25 03:33N 47°32' W 122°28'7 7.3
2015-Aug-25 02:33N 47°25' W 122°32'7 7.2
2015-Aug-25 01:31N 47°18' W 122°33'8 7.5
2015-Aug-25 00:31N 47°12' W 122°39'2 0.0
2015-Aug-23 02:33N 47°13' W 122°36'6 6.5
2015-Aug-23 01:33N 47°19' W 122°33'7 6.7
2015-Aug-23 00:34N 47°26' W 122°32'6 6.1
2015-Aug-22 23:33N 47°31' W 122°29'6 6.4
2015-Aug-22 22:34N 47°38' W 122°28'6 6.1
2015-Aug-22 21:33N 47°44' W 122°28'7 6.8
2015-Aug-22 20:34N 47°50' W 122°24'8 7.6
2015-Aug-22 19:33N 47°57' W 122°19'7 1.3
2015-Aug-22 14:30N 48°01' W 122°11'0 0.0
2015-Aug-22 05:06N 48°01' W 122°11'2 3.1
2015-Aug-22 04:34N 48°00' W 122°13'4 4.0
2015-Aug-22 03:33N 47°58' W 122°18'5 5.1
2015-Aug-22 02:34N 47°53' W 122°22'7 7.0
2015-Aug-22 01:34N 47°47' W 122°25'7 7.1
2015-Aug-22 00:33N 47°40' W 122°27'7 7.0
2015-Aug-21 23:33N 47°33' W 122°27'8 7.5
2015-Aug-21 22:33N 47°26' W 122°32'9 7.7
2015-Aug-21 21:23N 47°17' W 122°33'7 7.8
2015-Aug-21 20:29N 47°11' W 122°39'3 0.1
2015-Aug-20 00:04N 47°13' W 122°36'4 8.2
2015-Aug-19 23:33N 47°16' W 122°33'6 6.1
2015-Aug-19 22:33N 47°23' W 122°32'6 5.6
2015-Aug-19 21:33N 47°28' W 122°31'5 5.3
2015-Aug-19 20:33N 47°33' W 122°27'4 4.3
2015-Aug-19 19:33N 47°35' W 122°22'1 1.4
2015-Aug-19 18:34N 47°33' W 122°21'0 0.0
2015-Aug-19 17:33N 47°33' W 122°21'0 0.0
2015-Aug-19 16:33N 47°33' W 122°21'0 0.0
2015-Aug-19 15:33N 47°33' W 122°21'0 0.0
2015-Aug-19 14:33N 47°33' W 122°21'0 0.0
2015-Aug-19 13:33N 47°33' W 122°21'0 0.0
2015-Aug-19 12:33N 47°33' W 122°21'0 0.0
2015-Aug-19 11:34N 47°33' W 122°21'0 0.3
2015-Aug-19 10:33N 47°34' W 122°21'4 3.6
2015-Aug-19 09:33N 47°34' W 122°26'8 7.6
2015-Aug-19 08:33N 47°28' W 122°31'8 8.1
2015-Aug-19 07:33N 47°20' W 122°33'9 8.2
2015-Aug-19 06:28N 47°12' W 122°39'6 6.6
2015-Aug-19 05:33N 47°10' W 122°48'  
Track history (hours):
 
Tides and Currents Weather Stations Pressure Air Temp Water Temp Dewpoint Dewpoint Depression Visibility Wind Speed Wind Dir Waves Ship Positions

Holly Ann

Owner: Manke Tug and Barge Co., Inc., Shelton, WA. More information available from US FCC via Universal Licensing System and Coast Guard Vessel Documentation Center.

Last reported at 2015-Aug-27 20:04 UTC. Time now 2015-Sep-01 14:13 UTC.
Position N 47°11' W 122°39'.

; draft 4.5 m.

Type: Towing. MMSI: 367413350.

Date/timePositionNaut miles runAvg speedWind from/ knotsBaromVisibWave heightAir tempDewpointWater temp
2015-Aug-27 20:04N 47°11' W 122°39'5 9.8
2015-Aug-27 19:33N 47°15' W 122°34'9 9.3
2015-Aug-27 18:33N 47°24' W 122°32'7 7.4
2015-Aug-27 17:34N 47°31' W 122°29'6 5.9
2015-Aug-27 16:33N 47°35' W 122°22'1 1.4
2015-Aug-27 15:32N 47°33' W 122°21'0 0.0
2015-Aug-27 14:27N 47°33' W 122°21'0 0.0
2015-Aug-27 13:27N 47°33' W 122°21'0 0.0
2015-Aug-27 12:33N 47°33' W 122°21'0 0.0
2015-Aug-27 11:31N 47°33' W 122°21'0 0.0
2015-Aug-27 10:33N 47°33' W 122°21'0 0.0
2015-Aug-27 09:33N 47°33' W 122°21'0 0.0
2015-Aug-27 08:33N 47°33' W 122°21'0 0.0
2015-Aug-27 07:27N 47°33' W 122°21'0 0.0
2015-Aug-27 06:33N 47°33' W 122°21'2 2.3
2015-Aug-27 05:34N 47°35' W 122°22'6 6.2
2015-Aug-27 04:33N 47°31' W 122°29'8 7.8
2015-Aug-27 03:34N 47°24' W 122°32'8 8.2
2015-Aug-27 02:33N 47°16' W 122°34'5 0.2
2015-Aug-26 01:09N 47°12' W 122°39'5 7.5
2015-Aug-26 00:33N 47°15' W 122°34'7 7.1
2015-Aug-25 23:33N 47°22' W 122°32'8 7.9
2015-Aug-25 22:33N 47°30' W 122°30'8 7.8
2015-Aug-25 21:33N 47°36' W 122°22'2 1.7
2015-Aug-25 20:31N 47°34' W 122°21'0 0.0
2015-Aug-25 19:33N 47°34' W 122°21'0 0.0
2015-Aug-25 18:33N 47°34' W 122°21'0 0.0
2015-Aug-25 17:33N 47°34' W 122°21'0 0.0
2015-Aug-25 16:33N 47°34' W 122°21'0 0.0
2015-Aug-25 15:33N 47°34' W 122°21'0 0.0
2015-Aug-25 14:33N 47°34' W 122°21'0 0.0
2015-Aug-25 13:33N 47°34' W 122°21'0 0.0
2015-Aug-25 12:33N 47°34' W 122°21'0 0.0
2015-Aug-25 11:33N 47°34' W 122°21'0 0.0
2015-Aug-25 10:33N 47°34' W 122°21'0 0.0
2015-Aug-25 09:33N 47°34' W 122°21'0 0.0
2015-Aug-25 08:33N 47°34' W 122°21'0 0.0
2015-Aug-25 07:33N 47°34' W 122°21'0 0.0
2015-Aug-25 06:33N 47°34' W 122°21'0 0.0
2015-Aug-25 05:33N 47°34' W 122°21'1 0.8
2015-Aug-25 04:33N 47°35' W 122°22'5 5.0
2015-Aug-25 03:33N 47°32' W 122°28'7 7.3
2015-Aug-25 02:33N 47°25' W 122°32'7 7.2
2015-Aug-25 01:31N 47°18' W 122°33'8 7.5
2015-Aug-25 00:31N 47°12' W 122°39'2 0.0
2015-Aug-23 02:33N 47°13' W 122°36'6 6.5
2015-Aug-23 01:33N 47°19' W 122°33'7 6.7
2015-Aug-23 00:34N 47°26' W 122°32'6 6.1
2015-Aug-22 23:33N 47°31' W 122°29'6 6.4
2015-Aug-22 22:34N 47°38' W 122°28'6 6.1
2015-Aug-22 21:33N 47°44' W 122°28'7 6.8
2015-Aug-22 20:34N 47°50' W 122°24'8 7.6
2015-Aug-22 19:33N 47°57' W 122°19'7 1.3
2015-Aug-22 14:30N 48°01' W 122°11'0 0.0
2015-Aug-22 05:06N 48°01' W 122°11'2 3.1
2015-Aug-22 04:34N 48°00' W 122°13'4 4.0
2015-Aug-22 03:33N 47°58' W 122°18'5 5.1
2015-Aug-22 02:34N 47°53' W 122°22'7 7.0
2015-Aug-22 01:34N 47°47' W 122°25'7 7.1
2015-Aug-22 00:33N 47°40' W 122°27'7 7.0
2015-Aug-21 23:33N 47°33' W 122°27'8 7.5
2015-Aug-21 22:33N 47°26' W 122°32'9 7.7
2015-Aug-21 21:23N 47°17' W 122°33'7 7.8
2015-Aug-21 20:29N 47°11' W 122°39'3 0.1
2015-Aug-20 00:04N 47°13' W 122°36'4 8.2
2015-Aug-19 23:33N 47°16' W 122°33'6 6.1
2015-Aug-19 22:33N 47°23' W 122°32'6 5.6
2015-Aug-19 21:33N 47°28' W 122°31'5 5.3
2015-Aug-19 20:33N 47°33' W 122°27'4 4.3
2015-Aug-19 19:33N 47°35' W 122°22'1 1.4
2015-Aug-19 18:34N 47°33' W 122°21'0 0.0
2015-Aug-19 17:33N 47°33' W 122°21'0 0.0
2015-Aug-19 16:33N 47°33' W 122°21'0 0.0
2015-Aug-19 15:33N 47°33' W 122°21'0 0.0
2015-Aug-19 14:33N 47°33' W 122°21'0 0.0
2015-Aug-19 13:33N 47°33' W 122°21'0 0.0
2015-Aug-19 12:33N 47°33' W 122°21'0 0.0
2015-Aug-19 11:34N 47°33' W 122°21'0 0.3
2015-Aug-19 10:33N 47°34' W 122°21'4 3.6
2015-Aug-19 09:33N 47°34' W 122°26'8 7.6
2015-Aug-19 08:33N 47°28' W 122°31'8 8.1
2015-Aug-19 07:33N 47°20' W 122°33'9 8.2
2015-Aug-19 06:28N 47°12' W 122°39'6 6.6
2015-Aug-19 05:33N 47°10' W 122°48'  

Dump ship's entire track history